Time;durP1;ratioP1;P1;durP2;ratioP2;P2;SDS_P1;SDS_P2;PMS_P1;PMS_P2;Temp;Humidity;BMP_temperature;BMP_pressure;BME280_temperature;BME280_humidity;BME280_pressure;Samples;Min_cycle;Max_cycle;Signal;HPM_P1;HPM_P2
2023/07/26 00:02:34;;;;;;;;;;;;;;;;;;6241538;28;20036;-76
2023/07/26 00:05:35;;;;;;;;;;;;;;;;;;6236870;28;19915;-76
2023/07/26 00:08:35;;;;;;;;;;;;;;;;;;6239081;28;20035;-76
2023/07/26 00:11:35;;;;;;;;;;;;;;;;;;6244398;28;20003;-76
2023/07/26 00:14:35;;;;;;;;;;;;;;;;;;6241793;28;20367;-78
2023/07/26 00:17:36;;;;;;;;;;;;;;;;;;6224419;28;19917;-75
2023/07/26 00:20:36;;;;;;;;;;;;;;;;;;6225745;28;19909;-76
2023/07/26 00:23:36;;;;;;;;;;;;;;;;;;6225434;28;19910;-76
2023/07/26 00:26:36;;;;;;;;;;;;;;;;;;6222873;28;20070;-76
2023/07/26 00:29:36;;;;;;;;;;;;;;;;;;6245756;28;20434;-75
2023/07/26 00:32:36;;;;;;;;;;;;;;;;;;6226194;28;20256;-76
2023/07/26 00:35:36;;;;;;;;;;;;;;;;;;6226365;28;19908;-76
2023/07/26 00:38:37;;;;;;;;;;;;;;;;;;6244254;28;19986;-76
2023/07/26 00:41:38;;;;;;;;;;;;;;;;;;6242906;28;20034;-76
2023/07/26 00:44:38;;;;;;;;;;;;;;;;;;6240871;28;20348;-76
2023/07/26 00:47:38;;;;;;;;;;;;;;;;;;6241192;28;19912;-76
2023/07/26 00:50:38;;;;;;;;;;;;;;;;;;6240788;28;19913;-76
2023/07/26 00:53:38;;;;;;;;;;;;;;;;;;6234285;28;20039;-78
2023/07/26 00:56:38;;;;;;;;;;;;;;;;;;6237654;28;19917;-77
2023/07/26 00:59:39;;;;;;;;;;;;;;;;;;6241550;28;19909;-78
2023/07/26 01:02:39;;;;;;;;;;;;;;;;;;6244347;28;20416;-76
2023/07/26 01:05:39;;;;;;;;;;;;;;;;;;6229153;28;19909;-85
2023/07/26 01:08:39;;;;;;;;;;;;;;;;;;6253290;28;19897;-78
2023/07/26 01:11:39;;;;;;;;;;;;;;;;;;6234230;28;19952;-84
2023/07/26 01:14:40;;;;;;;;;;;;;;;;;;6234257;28;19916;-85
2023/07/26 01:17:40;;;;;;;;;;;;;;;;;;6238251;28;19943;-84
2023/07/26 01:20:40;;;;;;;;;;;;;;;;;;6237298;28;20031;-87
2023/07/26 01:23:40;;;;;;;;;;;;;;;;;;6246225;28;20000;-87
2023/07/26 01:26:40;;;;;;;;;;;;;;;;;;6248532;28;19917;-88
2023/07/26 01:29:40;;;;;;;;;;;;;;;;;;6252278;28;19905;-90
2023/07/26 01:32:40;;;;;;;;;;;;;;;;;;6251361;28;19916;-88
2023/07/26 01:35:41;;;;;;;;;;;;;;;;;;6251401;28;19963;-88
2023/07/26 01:38:41;;;;;;;;;;;;;;;;;;6248907;28;19916;-89
2023/07/26 01:41:41;;;;;;;;;;;;;;;;;;6246801;28;19909;-88
2023/07/26 01:44:41;;;;;;;;;;;;;;;;;;6247417;28;19909;-88
2023/07/26 01:47:42;;;;;;;;;;;;;;;;;;6229589;28;19913;-88
2023/07/26 01:50:42;;;;;;;;;;;;;;;;;;6245229;28;19909;-91
2023/07/26 01:53:43;;;;;;;;;;;;;;;;;;6244250;28;19905;-88
2023/07/26 01:56:43;;;;;;;;;;;;;;;;;;6246529;28;19970;-87
2023/07/26 01:59:43;;;;;;;;;;;;;;;;;;6244500;28;19905;-89
2023/07/26 02:02:43;;;;;;;;;;;;;;;;;;6239741;28;19910;-86
2023/07/26 02:05:44;;;;;;;;;;;;;;;;;;6227090;28;19905;-86
2023/07/26 02:08:44;;;;;;;;;;;;;;;;;;6240963;28;19913;-85
2023/07/26 02:11:44;;;;;;;;;;;;;;;;;;6247711;28;19909;-87
2023/07/26 02:14:44;;;;;;;;;;;;;;;;;;6249676;28;19932;-84
2023/07/26 02:17:44;;;;;;;;;;;;;;;;;;6233435;28;20003;-86
2023/07/26 02:20:44;;;;;;;;;;;;;;;;;;6234764;28;19915;-87
2023/07/26 02:23:44;;;;;;;;;;;;;;;;;;6246481;28;19917;-87
2023/07/26 02:26:44;;;;;;;;;;;;;;;;;;6241426;28;20446;-86
2023/07/26 02:29:44;;;;;;;;;;;;;;;;;;6250346;28;19947;-86
2023/07/26 02:32:44;;;;;;;;;;;;;;;;;;6244698;28;19927;-89
2023/07/26 02:35:44;;;;;;;;;;;;;;;;;;6253398;28;20229;-87
2023/07/26 02:38:45;;;;;;;;;;;;;;;;;;6253116;28;19909;-85
2023/07/26 02:41:45;;;;;;;;;;;;;;;;;;6251584;28;19936;-85
2023/07/26 02:44:45;;;;;;;;;;;;;;;;;;6247774;28;20003;-86
2023/07/26 02:47:45;;;;;;;;;;;;;;;;;;6252383;28;19913;-88
2023/07/26 02:50:45;;;;;;;;;;;;;;;;;;6245706;28;19952;-85
2023/07/26 02:53:46;;;;;;;;;;;;;;;;;;6248750;28;19909;-89
2023/07/26 02:56:46;;;;;;;;;;;;;;;;;;6246086;28;19905;-88
2023/07/26 02:59:46;;;;;;;;;;;;;;;;;;6228807;28;19915;-87
2023/07/26 03:02:46;;;;;;;;;;;;;;;;;;6246838;28;19998;-87
2023/07/26 03:05:46;;;;;;;;;;;;;;;;;;6249860;28;20440;-88
2023/07/26 03:08:46;;;;;;;;;;;;;;;;;;6222336;28;19964;-87
2023/07/26 03:11:46;;;;;;;;;;;;;;;;;;6246590;28;19940;-88
2023/07/26 03:14:46;;;;;;;;;;;;;;;;;;6247229;28;19955;-87
2023/07/26 03:17:46;;;;;;;;;;;;;;;;;;6242494;28;20049;-89
2023/07/26 03:20:47;;;;;;;;;;;;;;;;;;6236043;28;20008;-89
2023/07/26 03:23:47;;;;;;;;;;;;;;;;;;6221875;28;19956;-86
2023/07/26 03:26:47;;;;;;;;;;;;;;;;;;6240738;28;19920;-74
2023/07/26 03:29:47;;;;;;;;;;;;;;;;;;6242049;28;19905;-76
2023/07/26 03:32:47;;;;;;;;;;;;;;;;;;6227120;28;19905;-76
2023/07/26 03:35:47;;;;;;;;;;;;;;;;;;6246479;28;19912;-87
2023/07/26 03:38:48;;;;;;;;;;;;;;;;;;6227821;28;20370;-85
2023/07/26 03:41:48;;;;;;;;;;;;;;;;;;6241161;28;19905;-84
2023/07/26 03:44:48;;;;;;;;;;;;;;;;;;6246761;28;19905;-88
2023/07/26 03:47:48;;;;;;;;;;;;;;;;;;6249091;28;20442;-87
2023/07/26 03:50:48;;;;;;;;;;;;;;;;;;6248404;28;19911;-88
2023/07/26 03:53:48;;;;;;;;;;;;;;;;;;6249989;28;19905;-86
2023/07/26 03:56:48;;;;;;;;;;;;;;;;;;6260724;28;19905;-81
2023/07/26 03:59:48;;;;;;;;;;;;;;;;;;6245735;28;19905;-88
2023/07/26 04:02:48;;;;;;;;;;;;;;;;;;6246930;28;19909;-87
2023/07/26 04:05:49;;;;;;;;;;;;;;;;;;6232287;28;19905;-88
2023/07/26 04:08:49;;;;;;;;;;;;;;;;;;6252669;28;19917;-88
2023/07/26 04:11:50;;;;;;;;;;;;;;;;;;6240162;28;19913;-88
2023/07/26 04:14:50;;;;;;;;;;;;;;;;;;6231489;28;19915;-74
2023/07/26 04:17:50;;;;;;;;;;;;;;;;;;6237144;28;19928;-75
2023/07/26 04:20:50;;;;;;;;;;;;;;;;;;6243637;28;19939;-75
2023/07/26 04:23:51;;;;;;;;;;;;;;;;;;6239423;28;20357;-75
2023/07/26 04:26:52;;;;;;;;;;;;;;;;;;6218051;28;19939;-75
2023/07/26 04:29:52;;;;;;;;;;;;;;;;;;6241612;28;20314;-74
2023/07/26 04:32:52;;;;;;;;;;;;;;;;;;6233930;28;19924;-74
2023/07/26 04:35:52;;;;;;;;;;;;;;;;;;6243052;28;19996;-74
2023/07/26 04:38:53;;;;;;;;;;;;;;;;;;6243284;28;19909;-75
2023/07/26 04:41:53;;;;;;;;;;;;;;;;;;6238316;28;19909;-74
2023/07/26 04:44:53;;;;;;;;;;;;;;;;;;6240297;28;20276;-74
2023/07/26 04:47:53;;;;;;;;;;;;;;;;;;6240601;28;19920;-74
2023/07/26 04:50:53;;;;;;;;;;;;;;;;;;6238168;28;19964;-75
2023/07/26 04:53:53;;;;;;;;;;;;;;;;;;6239844;28;19952;-76
2023/07/26 04:56:53;;;;;;;;;;;;;;;;;;6225361;28;19909;-76
2023/07/26 04:59:53;;;;;;;;;;;;;;;;;;6215621;28;19916;-76
2023/07/26 05:02:54;;;;;;;;;;;;;;;;;;6239994;28;20413;-75
2023/07/26 05:05:54;;;;;;;;;;;;;;;;;;6243527;28;19909;-86
2023/07/26 05:08:54;;;;;;;;;;;;;;;;;;6233926;28;19920;-86
2023/07/26 05:11:54;;;;;;;;;;;;;;;;;;6228322;28;19913;-86
2023/07/26 05:14:54;;;;;;;;;;;;;;;;;;6231241;28;19916;-74
2023/07/26 05:17:54;;;;;;;;;;;;;;;;;;6237841;28;20467;-74
2023/07/26 05:20:54;;;;;;;;;;;;;;;;;;6242301;28;19952;-75
2023/07/26 05:23:54;;;;;;;;;;;;;;;;;;6242834;28;19956;-74
2023/07/26 05:26:54;;;;;;;;;;;;;;;;;;6240847;28;19928;-74
2023/07/26 05:29:57;;;;;;;;;;;;;;;;;;6221465;28;20271;-74
2023/07/26 05:32:57;;;;;;;;;;;;;;;;;;6237175;28;19909;-75
2023/07/26 05:35:57;;;;;;;;;;;;;;;;;;6240907;28;19909;-75
2023/07/26 05:38:57;;;;;;;;;;;;;;;;;;6230014;28;19909;-75
2023/07/26 05:41:57;;;;;;;;;;;;;;;;;;6222685;28;19909;-75
2023/07/26 05:44:57;;;;;;;;;;;;;;;;;;6234802;28;19924;-75
2023/07/26 05:47:59;;;;;;;;;;;;;;;;;;6214742;28;19952;-75
2023/07/26 05:50:59;;;;;;;;;;;;;;;;;;6234161;28;19959;-75
2023/07/26 05:54:00;;;;;;;;;;;;;;;;;;6247127;28;19940;-75
2023/07/26 05:57:00;;;;;;;;;;;;;;;;;;6235124;28;19959;-75
2023/07/26 06:00:00;;;;;;;;;;;;;;;;;;6242166;28;19913;-75
2023/07/26 06:03:00;;;;;;;;;;;;;;;;;;6244280;28;19913;-75
2023/07/26 06:06:00;;;;;;;;;;;;;;;;;;6241766;28;20000;-74
2023/07/26 06:09:01;;;;;;;;;;;;;;;;;;6244423;28;19919;-74
2023/07/26 06:12:01;;;;;;;;;;;;;;;;;;6245165;28;19909;-74
2023/07/26 06:15:01;;;;;;;;;;;;;;;;;;6243732;28;19909;-74
2023/07/26 06:18:01;;;;;;;;;;;;;;;;;;6238875;28;19923;-74
2023/07/26 06:21:01;;;;;;;;;;;;;;;;;;6242476;28;20378;-74
2023/07/26 06:24:01;;;;;;;;;;;;;;;;;;6246323;28;20333;-86
2023/07/26 06:27:04;;;;;;;;;;;;;;;;;;6247145;28;19921;-74
2023/07/26 06:30:04;;;;;;;;;;;;;;;;;;6244843;28;19951;-72
2023/07/26 06:33:04;;;;;;;;;;;;;;;;;;6247551;28;20083;-72
2023/07/26 06:36:06;;;;;;;;;;;;;;;;;;6245644;28;19905;-73
2023/07/26 06:39:06;;;;;;;;;;;;;;;;;;6238137;28;20353;-75
2023/07/26 06:42:07;;;;;;;;;;;;;;;;;;6236783;28;20008;-79
2023/07/26 06:45:07;;;;;;;;;;;;;;;;;;6242514;28;20000;-75
2023/07/26 06:48:07;;;;;;;;;;;;;;;;;;6249175;28;19913;-76
2023/07/26 06:51:07;;;;;;;;;;;;;;;;;;6242424;28;19909;-77
2023/07/26 06:54:08;;;;;;;;;;;;;;;;;;6241726;28;20363;-80
2023/07/26 06:57:08;;;;;;;;;;;;;;;;;;6245660;28;19917;-79
2023/07/26 07:00:12;;;;;;;;;;;;;;;;;;6245353;28;19924;-79
2023/07/26 07:03:12;;;;;;;;;;;;;;;;;;6241042;28;19920;-78
2023/07/26 07:06:12;;;;;;;;;;;;;;;;;;6245386;28;19913;-77
2023/07/26 07:09:12;;;;;;;;;;;;;;;;;;6242618;28;19928;-77
2023/07/26 07:12:12;;;;;;;;;;;;;;;;;;6241479;28;19919;-77
2023/07/26 07:15:14;;;;;;;;;;;;;;;;;;6243552;28;19967;-77
2023/07/26 07:18:14;;;;;;;;;;;;;;;;;;6244607;28;19995;-77
2023/07/26 07:21:14;;;;;;;;;;;;;;;;;;6241208;28;19920;-78
2023/07/26 07:24:15;;;;;;;;;;;;;;;;;;6243237;28;19917;-78
2023/07/26 07:27:16;;;;;;;;;;;;;;;;;;6241855;28;19916;-78
2023/07/26 07:30:16;;;;;;;;;;;;;;;;;;6238805;28;19944;-76
2023/07/26 07:33:16;;;;;;;;;;;;;;;;;;6239279;28;19924;-77
2023/07/26 07:36:19;;;;;;;;;;;;;;;;;;6239673;28;19924;-73
2023/07/26 07:39:19;;;;;;;;;;;;;;;;;;6242961;28;19908;-73
2023/07/26 07:42:19;;;;;;;;;;;;;;;;;;6241851;28;20324;-73
2023/07/26 07:45:19;;;;;;;;;;;;;;;;;;6240485;28;19920;-73
2023/07/26 07:48:19;;;;;;;;;;;;;;;;;;6234897;28;19916;-74
2023/07/26 07:51:19;;;;;;;;;;;;;;;;;;6237459;28;19941;-73
2023/07/26 07:54:19;;;;;;;;;;;;;;;;;;6242581;28;19912;-81
2023/07/26 07:57:21;;;;;;;;;;;;;;;;;;6243261;28;19912;-80
2023/07/26 08:00:22;;;;;;;;;;;;;;;;;;6242090;28;19913;-77
2023/07/26 08:03:22;;;;;;;;;;;;;;;;;;6235058;28;19954;-77
2023/07/26 08:06:22;;;;;;;;;;;;;;;;;;6240310;28;19917;-77
2023/07/26 08:09:22;;;;;;;;;;;;;;;;;;6240869;28;20243;-78
2023/07/26 08:12:22;;;;;;;;;;;;;;;;;;6237679;28;19913;-78
2023/07/26 08:15:22;;;;;;;;;;;;;;;;;;6240002;28;19913;-79
2023/07/26 08:18:23;;;;;;;;;;;;;;;;;;6239401;28;19921;-78
2023/07/26 08:21:23;;;;;;;;;;;;;;;;;;6241903;28;19921;-78
2023/07/26 08:24:23;;;;;;;;;;;;;;;;;;6234544;28;20673;-80
2023/07/26 08:27:26;;;;;;;;;;;;;;;;;;6242171;28;19932;-79
2023/07/26 08:30:26;;;;;;;;;;;;;;;;;;6247669;28;19912;-82
2023/07/26 08:33:26;;;;;;;;;;;;;;;;;;6239089;28;19913;-80
2023/07/26 08:36:26;;;;;;;;;;;;;;;;;;6243290;28;20544;-79
2023/07/26 08:39:26;;;;;;;;;;;;;;;;;;6240305;28;19909;-79
2023/07/26 08:42:26;;;;;;;;;;;;;;;;;;6236435;28;19916;-78
2023/07/26 08:45:26;;;;;;;;;;;;;;;;;;6241146;28;19951;-79
2023/07/26 08:48:27;;;;;;;;;;;;;;;;;;6241157;28;19920;-79
2023/07/26 08:51:27;;;;;;;;;;;;;;;;;;6240582;28;20379;-80
2023/07/26 08:54:27;;;;;;;;;;;;;;;;;;6241424;28;20018;-76
2023/07/26 08:57:27;;;;;;;;;;;;;;;;;;6241300;28;19966;-75
2023/07/26 09:00:28;;;;;;;;;;;;;;;;;;6242508;28;19909;-75
2023/07/26 09:03:28;;;;;;;;;;;;;;;;;;6240902;28;19913;-76
2023/07/26 09:06:28;;;;;;;;;;;;;;;;;;6238437;28;19947;-82
2023/07/26 09:09:28;;;;;;;;;;;;;;;;;;6245751;28;19917;-85
2023/07/26 09:12:28;;;;;;;;;;;;;;;;;;6237097;28;19909;-82
2023/07/26 09:15:28;;;;;;;;;;;;;;;;;;6240698;28;20279;-82
2023/07/26 09:18:30;;;;;;;;;;;;;;;;;;6247116;28;19905;-85
2023/07/26 09:21:30;;;;;;;;;;;;;;;;;;6232430;28;19975;-82
2023/07/26 09:24:30;;;;;;;;;;;;;;;;;;6237821;28;19905;-76
2023/07/26 09:27:31;;;;;;;;;;;;;;;;;;6238684;28;19917;-76
2023/07/26 09:30:31;;;;;;;;;;;;;;;;;;6226573;28;20015;-76
2023/07/26 09:33:31;;;;;;;;;;;;;;;;;;6243856;28;19909;-75
2023/07/26 09:36:31;;;;;;;;;;;;;;;;;;6237578;28;20375;-76
2023/07/26 09:39:32;;;;;;;;;;;;;;;;;;6237832;28;19999;-76
2023/07/26 09:42:33;;;;;;;;;;;;;;;;;;6242720;28;19908;-75
2023/07/26 09:45:33;;;;;;;;;;;;;;;;;;6232993;28;20458;-75
2023/07/26 09:48:33;;;;;;;;;;;;;;;;;;6242183;28;19956;-75
2023/07/26 09:51:33;;;;;;;;;;;;;;;;;;6226017;28;19909;-75
2023/07/26 09:54:34;;;;;;;;;;;;;;;;;;6242819;28;19909;-75
2023/07/26 09:57:34;;;;;;;;;;;;;;;;;;6242551;28;19913;-75
2023/07/26 10:00:34;;;;;;;;;;;;;;;;;;6238831;28;20000;-75
2023/07/26 10:03:34;;;;;;;;;;;;;;;;;;6240258;28;19909;-75
2023/07/26 10:06:35;;;;;;;;;;;;;;;;;;6242156;28;19913;-75
2023/07/26 10:09:39;;;;;;;;;;;;;;;;;;6234532;28;19905;-75
2023/07/26 10:12:39;;;;;;;;;;;;;;;;;;6240340;28;19956;-75
2023/07/26 10:15:41;;;;;;;;;;;;;;;;;;6227962;28;19912;-75
2023/07/26 10:18:41;;;;;;;;;;;;;;;;;;6214712;28;19955;-75
2023/07/26 10:21:41;;;;;;;;;;;;;;;;;;6232555;28;20330;-75
2023/07/26 10:24:45;;;;;;;;;;;;;;;;;;6242766;28;19905;-84
2023/07/26 10:27:45;;;;;;;;;;;;;;;;;;6238728;28;19953;-79
2023/07/26 10:30:45;;;;;;;;;;;;;;;;;;6233163;28;20306;-79
2023/07/26 10:33:47;;;;;;;;;;;;;;;;;;6232979;28;19919;-80
2023/07/26 10:36:47;;;;;;;;;;;;;;;;;;6219499;28;19905;-74
2023/07/26 10:39:48;;;;;;;;;;;;;;;;;;6245245;28;20355;-74
2023/07/26 10:42:48;;;;;;;;;;;;;;;;;;6245120;28;20671;-74
2023/07/26 10:45:49;;;;;;;;;;;;;;;;;;6247041;28;20011;-74
2023/07/26 10:48:49;;;;;;;;;;;;;;;;;;6245530;28;19920;-73
2023/07/26 10:51:49;;;;;;;;;;;;;;;;;;6238566;28;19914;-74
2023/07/26 10:54:49;;;;;;;;;;;;;;;;;;6238848;28;19909;-73
2023/07/26 10:57:49;;;;;;;;;;;;;;;;;;6231157;28;19916;-74
2023/07/26 11:00:50;;;;;;;;;;;;;;;;;;6229562;28;20007;-74
2023/07/26 11:03:50;;;;;;;;;;;;;;;;;;6240059;28;19909;-74
2023/07/26 11:06:51;;;;;;;;;;;;;;;;;;6245315;28;19916;-74
2023/07/26 11:09:51;;;;;;;;;;;;;;;;;;6245794;28;20329;-74
2023/07/26 11:12:51;;;;;;;;;;;;;;;;;;6245570;28;19905;-74
2023/07/26 11:15:51;;;;;;;;;;;;;;;;;;6244313;28;20342;-75
2023/07/26 11:18:51;;;;;;;;;;;;;;;;;;6243464;28;20382;-73
2023/07/26 11:21:51;;;;;;;;;;;;;;;;;;6245520;28;19909;-73
2023/07/26 11:24:51;;;;;;;;;;;;;;;;;;6245388;28;20216;-80
2023/07/26 11:27:51;;;;;;;;;;;;;;;;;;6243489;28;20063;-82
2023/07/26 11:30:52;;;;;;;;;;;;;;;;;;6238562;28;19998;-82
2023/07/26 11:33:52;;;;;;;;;;;;;;;;;;6245870;28;20446;-83
2023/07/26 11:36:52;;;;;;;;;;;;;;;;;;6239783;28;19956;-73
2023/07/26 11:39:52;;;;;;;;;;;;;;;;;;6243997;28;20016;-73
2023/07/26 11:42:52;;;;;;;;;;;;;;;;;;6235629;28;19909;-74
2023/07/26 11:45:52;;;;;;;;;;;;;;;;;;6243110;28;19909;-80
2023/07/26 11:48:53;;;;;;;;;;;;;;;;;;6242769;28;19963;-82
2023/07/26 11:51:53;;;;;;;;;;;;;;;;;;6243772;28;19996;-83
2023/07/26 11:54:54;;;;;;;;;;;;;;;;;;6238301;28;20371;-74
2023/07/26 11:57:54;;;;;;;;;;;;;;;;;;6242427;28;19956;-72
2023/07/26 12:00:55;;;;;;;;;;;;;;;;;;6241190;28;19954;-73
2023/07/26 12:03:55;;;;;;;;;;;;;;;;;;6235876;28;20398;-74
2023/07/26 12:06:56;;;;;;;;;;;;;;;;;;6232501;28;19913;-73
2023/07/26 12:09:57;;;;;;;;;;;;;;;;;;6254341;28;19913;-73
2023/07/26 12:12:57;;;;;;;;;;;;;;;;;;6244014;28;19912;-73
2023/07/26 12:15:58;;;;;;;;;;;;;;;;;;6239172;28;19920;-73
2023/07/26 12:19:00;;;;;;;;;;;;;;;;;;6244373;28;20302;-73
2023/07/26 12:22:01;;;;;;;;;;;;;;;;;;6239273;28;19905;-73
2023/07/26 12:25:02;;;;;;;;;;;;;;;;;;6233142;28;20013;-72
2023/07/26 12:28:03;;;;;;;;;;;;;;;;;;6232647;28;19917;-73
2023/07/26 12:31:03;;;;;;;;;;;;;;;;;;6222306;28;20129;-72
2023/07/26 12:34:03;;;;;;;;;;;;;;;;;;6243116;28;19936;-72
2023/07/26 12:37:03;;;;;;;;;;;;;;;;;;6232179;28;19915;-72
2023/07/26 12:40:05;;;;;;;;;;;;;;;;;;6223635;28;19912;-72
2023/07/26 12:43:05;;;;;;;;;;;;;;;;;;6239158;28;20047;-73
2023/07/26 12:46:06;;;;;;;;;;;;;;;;;;6236907;28;19913;-73
2023/07/26 12:49:08;;;;;;;;;;;;;;;;;;6241440;28;20500;-72
2023/07/26 12:52:08;;;;;;;;;;;;;;;;;;6229673;28;19966;-73
2023/07/26 12:55:08;;;;;;;;;;;;;;;;;;6242501;28;20004;-72
2023/07/26 12:58:08;;;;;;;;;;;;;;;;;;6240503;28;19909;-72
2023/07/26 13:01:08;;;;;;;;;;;;;;;;;;6237306;28;19963;-72
2023/07/26 13:04:08;;;;;;;;;;;;;;;;;;6234266;28;19909;-72
2023/07/26 13:07:09;;;;;;;;;;;;;;;;;;6239212;28;19959;-72
2023/07/26 13:10:09;;;;;;;;;;;;;;;;;;6230947;28;19997;-73
2023/07/26 13:13:09;;;;;;;;;;;;;;;;;;6232419;28;20103;-73
2023/07/26 13:16:09;;;;;;;;;;;;;;;;;;6232553;28;19967;-73
2023/07/26 13:19:09;;;;;;;;;;;;;;;;;;6236831;28;19916;-73
2023/07/26 13:22:09;;;;;;;;;;;;;;;;;;6235340;28;20039;-73
2023/07/26 13:25:09;;;;;;;;;;;;;;;;;;6241625;28;19983;-73
2023/07/26 13:28:09;;;;;;;;;;;;;;;;;;6241302;28;20383;-72
2023/07/26 13:31:09;;;;;;;;;;;;;;;;;;6241668;28;19917;-72
2023/07/26 13:34:10;;;;;;;;;;;;;;;;;;6237007;28;19913;-72
2023/07/26 13:37:10;;;;;;;;;;;;;;;;;;6236361;28;19997;-72
2023/07/26 13:40:11;;;;;;;;;;;;;;;;;;6241174;28;19959;-72
2023/07/26 13:43:11;;;;;;;;;;;;;;;;;;6242500;28;19909;-72
2023/07/26 13:46:11;;;;;;;;;;;;;;;;;;6236843;28;19909;-73
2023/07/26 13:49:11;;;;;;;;;;;;;;;;;;6235028;28;20307;-73
2023/07/26 13:52:12;;;;;;;;;;;;;;;;;;6236323;28;19905;-73
2023/07/26 13:55:13;;;;;;;;;;;;;;;;;;6241461;28;19948;-74
2023/07/26 13:58:13;;;;;;;;;;;;;;;;;;6240673;28;19931;-73
2023/07/26 14:01:13;;;;;;;;;;;;;;;;;;6241603;28;20382;-74
2023/07/26 14:04:13;;;;;;;;;;;;;;;;;;6238898;28;19909;-73
2023/07/26 14:07:13;;;;;;;;;;;;;;;;;;6231451;28;19923;-73
2023/07/26 14:10:13;;;;;;;;;;;;;;;;;;6231836;28;19920;-73
2023/07/26 14:13:15;;;;;;;;;;;;;;;;;;6239128;28;19956;-73
2023/07/26 14:16:15;;;;;;;;;;;;;;;;;;6247106;28;19924;-74
2023/07/26 14:19:15;;;;;;;;;;;;;;;;;;6245721;28;19905;-73
2023/07/26 14:22:16;;;;;;;;;;;;;;;;;;6246362;28;19913;-73
2023/07/26 14:25:16;;;;;;;;;;;;;;;;;;6246124;28;20363;-73
2023/07/26 14:28:16;;;;;;;;;;;;;;;;;;6240114;28;20264;-73
2023/07/26 14:31:17;;;;;;;;;;;;;;;;;;6247448;28;19909;-74
2023/07/26 14:34:17;;;;;;;;;;;;;;;;;;6242643;28;19983;-73
2023/07/26 14:37:19;;;;;;;;;;;;;;;;;;6246531;28;20008;-73
2023/07/26 14:40:19;;;;;;;;;;;;;;;;;;6242345;28;19991;-74
2023/07/26 14:43:19;;;;;;;;;;;;;;;;;;6243875;28;19962;-73
2023/07/26 14:46:19;;;;;;;;;;;;;;;;;;6232024;28;20260;-77
2023/07/26 14:49:19;;;;;;;;;;;;;;;;;;6234607;28;19999;-78
2023/07/26 14:52:19;;;;;;;;;;;;;;;;;;6237620;28;19913;-78
2023/07/26 14:55:19;;;;;;;;;;;;;;;;;;6234591;28;20703;-77
2023/07/26 14:58:19;;;;;;;;;;;;;;;;;;6240389;28;19966;-78
2023/07/26 15:01:19;;;;;;;;;;;;;;;;;;6239508;28;19905;-76
2023/07/26 15:04:20;;;;;;;;;;;;;;;;;;6245314;28;19963;-78
2023/07/26 15:07:20;;;;;;;;;;;;;;;;;;6239150;28;19913;-77
2023/07/26 15:10:20;;;;;;;;;;;;;;;;;;6248260;28;19913;-78
2023/07/26 15:13:20;;;;;;;;;;;;;;;;;;6240678;28;19912;-77
2023/07/26 15:16:21;;;;;;;;;;;;;;;;;;6245046;28;20704;-77
2023/07/26 15:19:21;;;;;;;;;;;;;;;;;;6240899;28;20356;-77
2023/07/26 15:22:22;;;;;;;;;;;;;;;;;;6238605;28;20103;-77
2023/07/26 15:25:22;;;;;;;;;;;;;;;;;;6218936;28;19958;-74
2023/07/26 15:28:22;;;;;;;;;;;;;;;;;;6236371;28;19920;-73
2023/07/26 15:31:22;;;;;;;;;;;;;;;;;;6241816;28;19908;-73
2023/07/26 15:34:22;;;;;;;;;;;;;;;;;;6243887;28;19952;-77
2023/07/26 15:37:22;;;;;;;;;;;;;;;;;;6245458;28;19913;-77
2023/07/26 15:40:23;;;;;;;;;;;;;;;;;;6245444;28;19909;-77
2023/07/26 15:43:23;;;;;;;;;;;;;;;;;;6243352;28;19912;-77
2023/07/26 15:46:23;;;;;;;;;;;;;;;;;;6242558;28;19960;-77
2023/07/26 15:49:23;;;;;;;;;;;;;;;;;;6241859;28;20395;-77
2023/07/26 15:52:24;;;;;;;;;;;;;;;;;;6234417;28;19952;-77
2023/07/26 15:55:24;;;;;;;;;;;;;;;;;;6228886;28;19945;-76
2023/07/26 15:58:24;;;;;;;;;;;;;;;;;;6240028;28;20028;-76
2023/07/26 16:01:24;;;;;;;;;;;;;;;;;;6242589;28;19915;-77
2023/07/26 16:04:24;;;;;;;;;;;;;;;;;;6242477;28;19909;-77
2023/07/26 16:07:24;;;;;;;;;;;;;;;;;;6243883;28;19912;-77
2023/07/26 16:10:25;;;;;;;;;;;;;;;;;;6240899;28;19963;-78
2023/07/26 16:13:26;;;;;;;;;;;;;;;;;;6241356;28;19913;-77
2023/07/26 16:16:26;;;;;;;;;;;;;;;;;;6243186;28;20276;-77
2023/07/26 16:19:26;;;;;;;;;;;;;;;;;;6244890;28;19944;-78
2023/07/26 16:22:26;;;;;;;;;;;;;;;;;;6226465;28;19912;-78
2023/07/26 16:25:26;;;;;;;;;;;;;;;;;;6246806;28;19905;-78
2023/07/26 16:28:26;;;;;;;;;;;;;;;;;;6241885;28;19960;-78
2023/07/26 16:31:26;;;;;;;;;;;;;;;;;;6236350;28;19955;-78
2023/07/26 16:34:26;;;;;;;;;;;;;;;;;;6235031;28;20295;-77
2023/07/26 16:37:26;;;;;;;;;;;;;;;;;;6241490;28;19919;-77
2023/07/26 16:40:26;;;;;;;;;;;;;;;;;;6219654;28;19913;-78
2023/07/26 16:43:27;;;;;;;;;;;;;;;;;;6235407;28;20006;-78
2023/07/26 16:46:27;;;;;;;;;;;;;;;;;;6240810;28;19920;-74
2023/07/26 16:49:28;;;;;;;;;;;;;;;;;;6239108;28;19913;-74
2023/07/26 16:52:28;;;;;;;;;;;;;;;;;;6239136;28;20600;-74
2023/07/26 16:55:28;;;;;;;;;;;;;;;;;;6233433;28;20075;-74
2023/07/26 16:58:28;;;;;;;;;;;;;;;;;;6232640;28;19955;-75
2023/07/26 17:01:28;;;;;;;;;;;;;;;;;;6234870;28;20430;-74
2023/07/26 17:04:29;;;;;;;;;;;;;;;;;;6240740;28;19916;-78
2023/07/26 17:07:29;;;;;;;;;;;;;;;;;;6241989;28;19913;-79
2023/07/26 17:10:29;;;;;;;;;;;;;;;;;;6237254;28;20450;-80
2023/07/26 17:13:30;;;;;;;;;;;;;;;;;;6225763;28;20477;-80
2023/07/26 17:16:30;;;;;;;;;;;;;;;;;;6234892;28;19913;-79
2023/07/26 17:19:30;;;;;;;;;;;;;;;;;;6242426;28;19909;-79
2023/07/26 17:22:30;;;;;;;;;;;;;;;;;;6235247;28;19916;-81
2023/07/26 17:25:30;;;;;;;;;;;;;;;;;;6238656;28;20458;-79
2023/07/26 17:28:30;;;;;;;;;;;;;;;;;;6230746;28;19932;-81
2023/07/26 17:31:30;;;;;;;;;;;;;;;;;;6241166;28;19916;-80
2023/07/26 17:34:31;;;;;;;;;;;;;;;;;;6240833;28;19988;-80
2023/07/26 17:37:31;;;;;;;;;;;;;;;;;;6238103;28;19905;-79
2023/07/26 17:40:35;;;;;;;;;;;;;;;;;;6242229;28;19916;-80
2023/07/26 17:43:35;;;;;;;;;;;;;;;;;;6241590;28;20275;-79
2023/07/26 17:46:35;;;;;;;;;;;;;;;;;;6243335;28;19905;-79
2023/07/26 17:49:35;;;;;;;;;;;;;;;;;;6245446;28;20397;-78
2023/07/26 17:52:36;;;;;;;;;;;;;;;;;;6247320;28;19966;-79
2023/07/26 17:55:37;;;;;;;;;;;;;;;;;;6238220;28;19957;-79
2023/07/26 17:58:38;;;;;;;;;;;;;;;;;;6245774;28;20434;-79
2023/07/26 18:01:38;;;;;;;;;;;;;;;;;;6244864;28;19920;-79
2023/07/26 18:04:38;;;;;;;;;;;;;;;;;;6227904;28;19955;-80
2023/07/26 18:07:38;;;;;;;;;;;;;;;;;;6245774;28;19968;-79
2023/07/26 18:10:39;;;;;;;;;;;;;;;;;;6246904;28;19940;-79
2023/07/26 18:13:39;;;;;;;;;;;;;;;;;;6244470;28;19916;-80
2023/07/26 18:16:39;;;;;;;;;;;;;;;;;;6240282;28;19917;-79
2023/07/26 18:19:39;;;;;;;;;;;;;;;;;;6243883;28;19913;-80
2023/07/26 18:22:40;;;;;;;;;;;;;;;;;;6249474;28;19916;-80
2023/07/26 18:25:40;;;;;;;;;;;;;;;;;;6243585;28;19988;-75
2023/07/26 18:28:40;;;;;;;;;;;;;;;;;;6247243;28;20287;-77
2023/07/26 18:31:40;;;;;;;;;;;;;;;;;;6244854;28;19913;-75
2023/07/26 18:34:41;;;;;;;;;;;;;;;;;;6246803;28;19920;-75
2023/07/26 18:37:41;;;;;;;;;;;;;;;;;;6245165;28;20285;-74
2023/07/26 18:40:41;;;;;;;;;;;;;;;;;;6245160;28;19959;-75
2023/07/26 18:43:41;;;;;;;;;;;;;;;;;;6243771;28;20246;-74
2023/07/26 18:46:41;;;;;;;;;;;;;;;;;;6239324;28;19916;-75
2023/07/26 18:49:42;;;;;;;;;;;;;;;;;;6235450;28;19916;-74
2023/07/26 18:52:42;;;;;;;;;;;;;;;;;;6237481;28;19999;-75
2023/07/26 18:55:44;;;;;;;;;;;;;;;;;;6237655;28;19909;-75
2023/07/26 18:58:44;;;;;;;;;;;;;;;;;;6243243;28;19908;-75
2023/07/26 19:01:44;;;;;;;;;;;;;;;;;;6239255;28;19920;-74
2023/07/26 19:04:44;;;;;;;;;;;;;;;;;;6219018;28;19959;-74
2023/07/26 19:07:44;;;;;;;;;;;;;;;;;;6242506;28;20024;-74
2023/07/26 19:10:45;;;;;;;;;;;;;;;;;;6243774;28;20294;-74
2023/07/26 19:13:45;;;;;;;;;;;;;;;;;;6238994;28;19990;-74
2023/07/26 19:16:46;;;;;;;;;;;;;;;;;;6244673;28;19913;-74
2023/07/26 19:19:46;;;;;;;;;;;;;;;;;;6233203;28;19947;-74
2023/07/26 19:22:47;;;;;;;;;;;;;;;;;;6238968;28;19996;-74
2023/07/26 19:25:47;;;;;;;;;;;;;;;;;;6241775;28;20000;-74
2023/07/26 19:28:48;;;;;;;;;;;;;;;;;;6236641;28;19963;-74
2023/07/26 19:31:48;;;;;;;;;;;;;;;;;;6242488;28;20334;-74
2023/07/26 19:34:48;;;;;;;;;;;;;;;;;;6224200;28;19958;-74
2023/07/26 19:37:48;;;;;;;;;;;;;;;;;;6240379;28;19913;-74
2023/07/26 19:40:49;;;;;;;;;;;;;;;;;;6243657;28;20004;-74
2023/07/26 19:43:49;;;;;;;;;;;;;;;;;;6244433;28;20350;-74
2023/07/26 19:46:51;;;;;;;;;;;;;;;;;;6244307;28;20500;-79
2023/07/26 19:49:51;;;;;;;;;;;;;;;;;;6244104;28;19909;-80
2023/07/26 19:52:51;;;;;;;;;;;;;;;;;;6235033;28;19913;-79
2023/07/26 19:55:52;;;;;;;;;;;;;;;;;;6240643;28;19913;-74
2023/07/26 19:58:52;;;;;;;;;;;;;;;;;;6244384;28;19905;-74
2023/07/26 20:01:52;;;;;;;;;;;;;;;;;;6226665;28;19909;-74
2023/07/26 20:04:52;;;;;;;;;;;;;;;;;;6243387;28;19909;-80
2023/07/26 20:07:52;;;;;;;;;;;;;;;;;;6242722;28;19928;-79
2023/07/26 20:10:52;;;;;;;;;;;;;;;;;;6238459;28;20019;-79
2023/07/26 20:13:53;;;;;;;;;;;;;;;;;;6242526;28;19975;-79
2023/07/26 20:16:53;;;;;;;;;;;;;;;;;;6244350;28;19917;-80
2023/07/26 20:19:53;;;;;;;;;;;;;;;;;;6237584;28;20343;-79
2023/07/26 20:22:54;;;;;;;;;;;;;;;;;;6240975;28;19913;-79
2023/07/26 20:25:54;;;;;;;;;;;;;;;;;;6234418;28;20016;-78
2023/07/26 20:28:54;;;;;;;;;;;;;;;;;;6236724;28;19917;-79
2023/07/26 20:31:54;;;;;;;;;;;;;;;;;;6237840;28;19909;-80